createdAt,value
2023-01-28T00:00:54.101Z,86.15
2023-01-28T00:02:58.442Z,86.19
2023-01-28T00:05:02.520Z,86.08
2023-01-28T00:07:06.320Z,86.30
2023-01-28T00:09:10.732Z,86.64
2023-01-28T00:11:15.968Z,86.54
2023-01-28T00:13:19.328Z,86.32
2023-01-28T00:15:25.825Z,86.21
2023-01-28T00:17:30.115Z,86.05
2023-01-28T00:19:33.768Z,86.05
2023-01-28T00:21:37.419Z,85.88
2023-01-28T00:23:49.938Z,85.82
2023-01-28T00:25:54.774Z,85.51
2023-01-28T00:28:00.710Z,85.53
2023-01-28T00:30:04.810Z,85.45
2023-01-28T00:32:10.459Z,85.65
2023-01-28T00:34:14.228Z,85.51
2023-01-28T00:36:19.339Z,85.44
2023-01-28T00:38:22.822Z,85.38
2023-01-28T00:40:26.500Z,85.43
2023-01-28T00:42:30.138Z,85.46
2023-01-28T00:44:33.804Z,85.41
2023-01-28T00:46:42.268Z,85.64
2023-01-28T00:48:47.618Z,85.91
2023-01-28T00:50:51.114Z,85.50
2023-01-28T00:52:55.905Z,85.60
2023-01-28T00:55:01.250Z,85.20
2023-01-28T00:57:04.979Z,85.29
2023-01-28T00:59:08.726Z,85.00
2023-01-28T01:01:15.671Z,85.39
2023-01-28T01:03:20.244Z,85.62
2023-01-28T01:05:25.340Z,85.36
2023-01-28T01:07:35.117Z,85.51
2023-01-28T01:09:38.865Z,85.62
2023-01-28T01:11:42.435Z,85.79
2023-01-28T01:13:46.500Z,85.63
2023-01-28T01:15:50.241Z,86.35
2023-01-28T01:17:54.678Z,86.36
2023-01-28T01:19:58.316Z,86.08
2023-01-28T01:22:03.951Z,86.39
2023-01-28T01:24:08.312Z,86.37
2023-01-28T01:26:12.189Z,86.60
2023-01-28T01:28:17.543Z,86.56
2023-01-28T01:30:21.511Z,86.56
2023-01-28T01:32:25.163Z,87.03
2023-01-28T01:34:28.684Z,86.83
2023-01-28T01:36:32.945Z,86.85
2023-01-28T01:38:38.098Z,87.28
2023-01-28T01:40:41.372Z,87.17
2023-01-28T01:42:45.041Z,87.14
2023-01-28T01:44:56.936Z,87.63
2023-01-28T01:47:00.911Z,87.56
2023-01-28T01:49:10.809Z,87.56
2023-01-28T01:51:18.948Z,88.12
2023-01-28T01:53:24.367Z,88.39
2023-01-28T01:55:32.893Z,89.22
2023-01-28T01:57:38.456Z,89.56
2023-01-28T01:59:43.866Z,89.73
2023-01-28T02:01:47.650Z,90.19
2023-01-28T02:03:58.952Z,90.34
2023-01-28T02:06:02.636Z,90.59
2023-01-28T02:08:20.776Z,91.03
2023-01-28T02:10:25.951Z,92.07
2023-01-28T02:12:36.397Z,92.33
2023-01-28T02:14:43.541Z,92.74
2023-01-28T02:16:47.373Z,93.01
2023-01-28T02:18:50.901Z,93.17
2023-01-28T02:21:18.275Z,93.61
2023-01-28T02:23:42.328Z,93.87
2023-01-28T02:26:05.255Z,94.13
2023-01-28T02:28:24.717Z,94.30
2023-01-28T02:30:34.941Z,94.81
2023-01-28T02:32:45.543Z,94.75
2023-01-28T02:34:52.705Z,94.81
2023-01-28T02:37:01.517Z,95.17
2023-01-28T02:39:14.834Z,95.25
2023-01-28T02:41:25.368Z,95.28
2023-01-28T02:43:34.740Z,95.91
2023-01-28T02:45:52.726Z,95.67
2023-01-28T02:47:59.172Z,95.89
2023-01-28T02:50:05.895Z,96.28
2023-01-28T02:52:51.639Z,96.05
2023-01-28T02:55:03.584Z,96.02
2023-01-28T02:57:20.516Z,96.31
2023-01-28T02:59:34.264Z,96.41
2023-01-28T03:01:47.684Z,96.20
2023-01-28T03:03:59.281Z,96.56
2023-01-28T03:06:08.282Z,96.39
2023-01-28T03:08:27.443Z,96.86
2023-01-28T03:10:30.976Z,96.84
2023-01-28T03:12:54.282Z,96.78
2023-01-28T03:15:21.424Z,97.29
2023-01-28T03:17:50.965Z,97.45
2023-01-28T03:20:13.429Z,97.90
2023-01-28T03:22:35.750Z,98.71
2023-01-28T03:25:02.599Z,98.99
2023-01-28T03:27:30.673Z,99.22
2023-01-28T03:29:58.757Z,99.80
2023-01-28T03:32:21.816Z,100.00
2023-01-28T03:34:42.575Z,100.00
2023-01-28T03:36:51.571Z,100.00
2023-01-28T03:39:13.985Z,100.00
2023-01-28T03:41:22.817Z,100.00
2023-01-28T03:43:26.397Z,100.00
2023-01-28T03:45:29.087Z,100.00
2023-01-28T03:47:34.487Z,100.00
2023-01-28T03:49:41.522Z,100.00
2023-01-28T03:51:46.301Z,100.00
2023-01-28T03:53:49.678Z,100.00
2023-01-28T03:55:54.169Z,100.00
2023-01-28T03:57:57.531Z,100.00
2023-01-28T04:00:01.134Z,100.00
2023-01-28T04:02:05.857Z,100.00
2023-01-28T04:04:23.773Z,100.00
2023-01-28T04:06:31.123Z,100.00
2023-01-28T04:09:09.415Z,100.00
2023-01-28T04:11:26.171Z,100.00
2023-01-28T04:13:29.824Z,100.00
2023-01-28T04:15:33.831Z,100.00
2023-01-28T04:17:39.108Z,100.00
2023-01-28T04:19:44.387Z,100.00
2023-01-28T04:21:49.145Z,100.00
2023-01-28T04:23:53.100Z,100.00
2023-01-28T04:25:57.060Z,100.00
2023-01-28T04:28:00.882Z,100.00
2023-01-28T04:30:07.805Z,100.00
2023-01-28T04:32:16.066Z,100.00
2023-01-28T04:34:38.541Z,100.00
2023-01-28T04:37:14.177Z,100.00
2023-01-28T04:39:21.809Z,100.00
2023-01-28T04:41:45.070Z,100.00
2023-01-28T04:44:06.414Z,100.00
2023-01-28T04:46:30.026Z,100.00
2023-01-28T04:48:59.610Z,100.00
2023-01-28T04:51:33.429Z,100.00
2023-01-28T04:53:58.680Z,100.00
2023-01-28T04:56:11.103Z,100.00
2023-01-28T04:58:16.498Z,100.00
2023-01-28T05:00:23.908Z,100.00
2023-01-28T05:02:30.702Z,100.00
2023-01-28T05:04:36.751Z,100.00
2023-01-28T05:06:45.267Z,100.00
2023-01-28T05:09:01.587Z,100.00
2023-01-28T05:11:06.846Z,100.00
2023-01-28T05:13:10.591Z,100.00
2023-01-28T05:15:15.778Z,100.00
2023-01-28T05:17:19.989Z,100.00
2023-01-28T05:19:23.764Z,100.00
2023-01-28T05:21:28.225Z,100.00
2023-01-28T05:23:38.481Z,100.00
2023-01-28T05:25:43.966Z,100.00
2023-01-28T05:27:51.685Z,100.00
2023-01-28T05:29:55.362Z,100.00
2023-01-28T05:31:59.316Z,100.00
2023-01-28T05:34:02.898Z,100.00
2023-01-28T05:36:07.355Z,100.00
2023-01-28T05:38:11.629Z,100.00
2023-01-28T05:40:17.006Z,100.00
2023-01-28T05:42:22.892Z,100.00
2023-01-28T05:44:31.084Z,100.00
2023-01-28T05:46:59.456Z,100.00
2023-01-28T05:49:28.979Z,100.00
2023-01-28T05:51:49.915Z,100.00
2023-01-28T05:53:56.771Z,100.00
2023-01-28T05:56:00.187Z,100.00
2023-01-28T05:58:06.369Z,100.00
2023-01-28T06:00:11.346Z,100.00
2023-01-28T06:02:21.914Z,100.00
2023-01-28T06:04:27.693Z,100.00
2023-01-28T06:06:31.613Z,100.00
2023-01-28T06:08:35.257Z,100.00
2023-01-28T06:10:38.649Z,100.00
2023-01-28T06:12:42.176Z,100.00
2023-01-28T06:15:15.423Z,100.00
2023-01-28T06:17:35.736Z,100.00
2023-01-28T06:19:44.540Z,100.00
2023-01-28T06:21:47.994Z,100.00
2023-01-28T06:23:51.556Z,100.00
2023-01-28T06:25:56.123Z,100.00
2023-01-28T06:28:00.893Z,100.00
2023-01-28T06:30:05.267Z,100.00
2023-01-28T06:32:10.261Z,100.00
2023-01-28T06:34:14.005Z,100.00
2023-01-28T06:36:17.731Z,100.00
2023-01-28T06:38:21.372Z,100.00
2023-01-28T06:40:25.531Z,100.00
2023-01-28T06:42:29.615Z,100.00
2023-01-28T06:44:33.358Z,100.00
2023-01-28T06:46:37.426Z,100.00
2023-01-28T06:48:42.365Z,100.00
2023-01-28T06:50:48.716Z,100.00
2023-01-28T06:52:52.407Z,100.00
2023-01-28T06:54:56.006Z,100.00
2023-01-28T06:56:59.476Z,100.00
2023-01-28T06:59:03.228Z,100.00
2023-01-28T07:01:07.002Z,100.00
2023-01-28T07:03:10.595Z,100.00
2023-01-28T07:05:16.114Z,100.00
2023-01-28T07:07:19.828Z,100.00
2023-01-28T07:09:23.468Z,100.00
2023-01-28T07:11:27.060Z,100.00
2023-01-28T07:13:30.721Z,100.00
2023-01-28T07:15:34.255Z,100.00
2023-01-28T07:17:37.950Z,100.00
2023-01-28T07:19:41.512Z,100.00
2023-01-28T07:21:46.527Z,100.00
2023-01-28T07:23:50.308Z,100.00
2023-01-28T07:25:54.126Z,100.00
2023-01-28T07:27:57.553Z,100.00
2023-01-28T07:30:01.150Z,100.00
2023-01-28T07:32:07.500Z,100.00
2023-01-28T07:34:11.763Z,100.00
2023-01-28T07:36:15.323Z,100.00
2023-01-28T07:38:20.338Z,100.00
2023-01-28T07:40:23.955Z,100.00
2023-01-28T07:42:27.473Z,100.00
2023-01-28T07:44:31.180Z,100.00
2023-01-28T07:46:34.723Z,100.00
2023-01-28T07:48:38.298Z,100.00
2023-01-28T07:50:42.071Z,100.00
2023-01-28T07:52:46.357Z,100.00
2023-01-28T07:54:51.366Z,100.00
2023-01-28T07:56:55.026Z,100.00
2023-01-28T07:58:58.704Z,100.00
2023-01-28T08:01:03.291Z,100.00
2023-01-28T08:03:14.988Z,100.00
2023-01-28T08:05:20.090Z,100.00
2023-01-28T08:07:23.368Z,100.00
2023-01-28T08:09:26.907Z,100.00
2023-01-28T08:11:31.932Z,100.00
2023-01-28T08:13:36.059Z,100.00
2023-01-28T08:15:39.829Z,100.00
2023-01-28T08:17:44.001Z,100.00
2023-01-28T08:19:47.575Z,100.00
2023-01-28T08:21:51.067Z,100.00
2023-01-28T08:23:54.941Z,100.00
2023-01-28T08:26:00.304Z,100.00
2023-01-28T08:28:06.476Z,100.00
2023-01-28T08:30:11.545Z,100.00
2023-01-28T08:32:15.368Z,100.00
2023-01-28T08:34:19.077Z,100.00
2023-01-28T08:36:22.882Z,100.00
2023-01-28T08:38:26.881Z,100.00
2023-01-28T08:40:31.254Z,100.00
2023-01-28T08:42:35.008Z,100.00
2023-01-28T08:44:40.602Z,100.00
2023-01-28T08:46:44.116Z,100.00
2023-01-28T08:48:47.914Z,100.00
2023-01-28T08:50:52.328Z,100.00
2023-01-28T08:53:00.959Z,100.00
2023-01-28T08:55:04.618Z,100.00
2023-01-28T08:57:08.117Z,100.00
2023-01-28T08:59:12.109Z,100.00
2023-01-28T09:01:16.939Z,100.00
2023-01-28T09:03:20.796Z,100.00
2023-01-28T09:05:24.638Z,100.00
2023-01-28T09:07:28.236Z,100.00
2023-01-28T09:09:32.750Z,100.00
2023-01-28T09:11:36.560Z,100.00
2023-01-28T09:13:40.258Z,100.00
2023-01-28T09:15:44.384Z,100.00
2023-01-28T09:17:50.049Z,100.00
2023-01-28T09:19:54.056Z,100.00
2023-01-28T09:21:59.270Z,100.00
2023-01-28T09:24:03.211Z,100.00
2023-01-28T09:26:09.277Z,100.00
2023-01-28T09:28:12.830Z,100.00
2023-01-28T09:30:17.731Z,100.00
2023-01-28T09:32:21.659Z,100.00
2023-01-28T09:34:28.266Z,100.00
2023-01-28T09:36:34.418Z,100.00
2023-01-28T09:38:39.161Z,100.00
2023-01-28T09:40:47.109Z,100.00
2023-01-28T09:43:00.960Z,100.00
2023-01-28T09:45:10.859Z,100.00
2023-01-28T09:47:28.368Z,100.00
2023-01-28T09:49:43.599Z,100.00
2023-01-28T09:51:55.756Z,100.00
2023-01-28T09:54:07.974Z,100.00
2023-01-28T09:56:16.204Z,100.00
2023-01-28T09:58:21.744Z,100.00
2023-01-28T10:00:34.908Z,100.00
2023-01-28T10:02:55.507Z,100.00
2023-01-28T10:05:17.976Z,100.00
2023-01-28T10:07:40.180Z,100.00
2023-01-28T10:09:53.168Z,100.00
2023-01-28T10:12:25.827Z,100.00
2023-01-28T10:14:47.286Z,100.00
2023-01-28T10:16:54.329Z,100.00
2023-01-28T10:19:02.625Z,100.00
2023-01-28T10:21:16.937Z,100.00
2023-01-28T10:23:29.375Z,100.00
2023-01-28T10:25:36.149Z,100.00
2023-01-28T10:27:40.397Z,100.00
2023-01-28T10:29:46.321Z,100.00
2023-01-28T10:31:54.675Z,100.00
2023-01-28T10:33:58.367Z,100.00
2023-01-28T10:36:02.487Z,100.00
2023-01-28T10:38:14.667Z,100.00
2023-01-28T10:40:22.473Z,100.00
2023-01-28T10:42:31.370Z,100.00
2023-01-28T10:44:40.636Z,100.00
2023-01-28T10:46:50.849Z,100.00
2023-01-28T10:48:59.601Z,100.00
2023-01-28T10:51:06.588Z,100.00
2023-01-28T10:53:14.790Z,100.00
2023-01-28T10:55:22.703Z,100.00
2023-01-28T10:57:30.921Z,100.00
2023-01-28T10:59:42.848Z,100.00
2023-01-28T11:01:51.652Z,100.00
2023-01-28T11:04:02.280Z,100.00
2023-01-28T11:06:11.360Z,100.00
2023-01-28T11:08:20.030Z,100.00
2023-01-28T11:10:34.984Z,100.00
2023-01-28T11:12:39.071Z,100.00
2023-01-28T11:14:55.332Z,100.00
2023-01-28T11:17:00.347Z,100.00
2023-01-28T11:19:06.630Z,100.00
2023-01-28T11:21:20.205Z,100.00
2023-01-28T11:23:29.711Z,100.00
2023-01-28T11:25:35.501Z,100.00
2023-01-28T11:27:39.267Z,100.00
2023-01-28T11:29:43.523Z,100.00
2023-01-28T11:31:47.776Z,100.00
2023-01-28T11:33:54.488Z,100.00
2023-01-28T11:36:00.310Z,100.00
2023-01-28T11:38:04.137Z,100.00
2023-01-28T11:40:22.317Z,100.00
2023-01-28T11:42:26.293Z,100.00
2023-01-28T11:44:30.687Z,100.00
2023-01-28T11:46:52.513Z,100.00
2023-01-28T11:49:07.291Z,100.00
2023-01-28T11:51:28.682Z,100.00
2023-01-28T11:54:02.333Z,100.00
2023-01-28T11:56:24.749Z,100.00
2023-01-28T11:58:44.112Z,100.00
2023-01-28T12:01:04.337Z,100.00
2023-01-28T12:03:29.233Z,100.00
2023-01-28T12:05:50.113Z,100.00
2023-01-28T12:08:01.395Z,100.00
2023-01-28T12:10:17.257Z,100.00
2023-01-28T12:12:47.381Z,100.00
2023-01-28T12:15:15.563Z,100.00
2023-01-28T12:17:33.156Z,100.00
2023-01-28T12:20:06.967Z,100.00
2023-01-28T12:22:26.335Z,100.00
2023-01-28T12:24:43.812Z,100.00
2023-01-28T12:26:52.385Z,100.00
2023-01-28T12:29:17.796Z,100.00
2023-01-28T12:31:43.760Z,100.00
2023-01-28T12:34:05.630Z,100.00
2023-01-28T12:36:22.184Z,100.00
2023-01-28T12:38:35.366Z,100.00
2023-01-28T12:40:50.547Z,100.00
2023-01-28T12:42:57.917Z,100.00
2023-01-28T12:45:12.489Z,100.00
2023-01-28T12:47:21.673Z,100.00
2023-01-28T12:49:31.861Z,100.00
2023-01-28T12:51:44.205Z,100.00
2023-01-28T12:53:52.889Z,100.00
2023-01-28T12:56:00.708Z,100.00
2023-01-28T12:58:08.063Z,100.00
2023-01-28T13:00:24.403Z,100.00
2023-01-28T13:02:33.281Z,100.00
2023-01-28T13:04:41.705Z,100.00
2023-01-28T13:06:50.761Z,100.00
2023-01-28T13:09:00.989Z,100.00
2023-01-28T13:11:06.318Z,100.00
2023-01-28T13:13:18.256Z,100.00
2023-01-28T13:15:24.215Z,100.00
2023-01-28T13:17:29.932Z,100.00
2023-01-28T13:19:39.948Z,100.00
2023-01-28T13:21:49.440Z,100.00
2023-01-28T13:24:06.555Z,100.00
2023-01-28T13:26:13.277Z,100.00
2023-01-28T13:28:29.820Z,100.00
2023-01-28T13:30:37.240Z,100.00
2023-01-28T13:32:41.039Z,100.00
2023-01-28T13:34:45.093Z,100.00
2023-01-28T13:36:50.619Z,100.00
2023-01-28T13:39:04.274Z,100.00
2023-01-28T13:41:07.865Z,100.00
2023-01-28T13:43:29.742Z,100.00
2023-01-28T13:45:35.571Z,100.00
2023-01-28T13:47:40.089Z,100.00
2023-01-28T13:49:46.135Z,100.00
2023-01-28T13:52:01.399Z,100.00
2023-01-28T13:54:08.977Z,100.00
2023-01-28T13:56:22.638Z,100.00
2023-01-28T13:59:07.019Z,100.00
2023-01-28T14:01:46.049Z,100.00
2023-01-28T14:04:06.012Z,100.00
2023-01-28T14:06:42.782Z,100.00
2023-01-28T14:09:13.391Z,100.00
2023-01-28T14:11:52.556Z,100.00
2023-01-28T14:14:23.426Z,100.00
2023-01-28T14:16:37.344Z,100.00
2023-01-28T14:18:44.491Z,100.00
2023-01-28T14:20:48.574Z,100.00
2023-01-28T14:22:53.655Z,100.00
2023-01-28T14:25:02.928Z,100.00
2023-01-28T14:27:16.483Z,100.00
2023-01-28T14:29:43.021Z,100.00
2023-01-28T14:31:48.996Z,100.00
2023-01-28T14:33:52.975Z,100.00
2023-01-28T14:35:58.358Z,100.00
2023-01-28T14:38:08.785Z,100.00
2023-01-28T14:40:16.854Z,100.00
2023-01-28T14:42:25.870Z,100.00
2023-01-28T14:44:33.948Z,100.00
2023-01-28T14:46:46.300Z,100.00
2023-01-28T14:49:04.156Z,100.00
2023-01-28T14:51:37.909Z,100.00
2023-01-28T14:53:56.005Z,100.00
2023-01-28T14:56:09.799Z,100.00
2023-01-28T14:58:19.685Z,100.00
2023-01-28T15:00:25.736Z,100.00
2023-01-28T15:02:31.779Z,100.00
2023-01-28T15:04:36.630Z,100.00
2023-01-28T15:06:40.174Z,100.00
2023-01-28T15:08:44.276Z,100.00
2023-01-28T15:10:47.900Z,100.00
2023-01-28T15:12:56.094Z,100.00
2023-01-28T15:15:00.479Z,100.00
2023-01-28T15:17:05.147Z,100.00
2023-01-28T15:19:10.791Z,100.00
2023-01-28T15:21:20.595Z,100.00
2023-01-28T15:23:28.437Z,100.00
2023-01-28T15:25:31.871Z,100.00
2023-01-28T15:27:35.758Z,100.00
2023-01-28T15:29:39.736Z,100.00
2023-01-28T15:31:49.972Z,100.00
2023-01-28T15:34:01.964Z,100.00
2023-01-28T15:36:07.596Z,100.00
2023-01-28T15:38:12.897Z,100.00
2023-01-28T15:40:21.831Z,100.00
2023-01-28T15:42:29.679Z,100.00
2023-01-28T15:44:36.803Z,100.00
2023-01-28T15:46:41.836Z,100.00
2023-01-28T15:48:48.322Z,100.00
2023-01-28T15:51:01.877Z,100.00
2023-01-28T15:53:11.662Z,100.00
2023-01-28T15:55:36.880Z,100.00
2023-01-28T15:57:40.469Z,100.00
2023-01-28T15:59:47.605Z,100.00
2023-01-28T16:01:51.292Z,100.00
2023-01-28T16:04:06.734Z,100.00
2023-01-28T16:06:12.322Z,100.00
2023-01-28T16:08:27.078Z,100.00
2023-01-28T16:10:31.682Z,100.00
2023-01-28T16:12:35.339Z,100.00
2023-01-28T16:14:45.699Z,100.00
2023-01-28T16:16:50.228Z,100.00
2023-01-28T16:18:56.315Z,100.00
2023-01-28T16:21:01.061Z,100.00
2023-01-28T16:23:05.669Z,100.00
2023-01-28T16:25:30.117Z,100.00
2023-01-28T16:27:33.814Z,100.00
2023-01-28T16:29:37.619Z,100.00
2023-01-28T16:31:41.384Z,100.00
2023-01-28T16:33:45.031Z,100.00
2023-01-28T16:36:06.159Z,100.00
2023-01-28T16:38:16.986Z,100.00
2023-01-28T16:40:22.981Z,100.00
2023-01-28T16:42:28.708Z,100.00
2023-01-28T16:44:32.116Z,100.00
2023-01-28T16:46:35.649Z,100.00
2023-01-28T16:48:40.060Z,100.00
2023-01-28T16:50:45.286Z,100.00
2023-01-28T16:52:51.123Z,100.00
2023-01-28T16:54:54.818Z,100.00
2023-01-28T16:56:58.734Z,100.00
2023-01-28T16:59:03.994Z,100.00
2023-01-28T17:01:09.656Z,100.00
2023-01-28T17:03:14.252Z,100.00
2023-01-28T17:05:18.627Z,100.00
2023-01-28T17:07:23.071Z,100.00
2023-01-28T17:09:26.989Z,100.00
2023-01-28T17:11:30.644Z,100.00
2023-01-28T17:13:34.162Z,100.00
2023-01-28T17:15:39.405Z,100.00
2023-01-28T17:17:43.216Z,100.00
2023-01-28T17:19:46.927Z,100.00
2023-01-28T17:21:50.473Z,100.00
2023-01-28T17:23:54.194Z,100.00
2023-01-28T17:26:05.741Z,100.00
2023-01-28T17:28:09.764Z,100.00
2023-01-28T17:30:14.763Z,100.00
2023-01-28T17:32:19.683Z,100.00
2023-01-28T17:34:23.273Z,100.00
2023-01-28T17:36:27.863Z,100.00
2023-01-28T17:38:31.742Z,100.00
2023-01-28T17:40:35.399Z,100.00
2023-01-28T17:42:38.981Z,100.00
2023-01-28T17:44:43.092Z,100.00
2023-01-28T17:46:47.939Z,100.00
2023-01-28T17:48:52.936Z,100.00
2023-01-28T17:50:57.553Z,100.00
2023-01-28T17:53:01.681Z,100.00
2023-01-28T17:55:05.503Z,100.00
2023-01-28T17:57:09.463Z,100.00
2023-01-28T17:59:17.526Z,100.00
2023-01-28T18:01:22.379Z,100.00
2023-01-28T18:03:26.539Z,100.00
2023-01-28T18:05:31.740Z,100.00
2023-01-28T18:07:35.549Z,100.00
2023-01-28T18:09:39.775Z,100.00
2023-01-28T18:11:43.437Z,100.00
2023-01-28T18:13:48.300Z,100.00
2023-01-28T18:15:52.518Z,100.00
2023-01-28T18:17:56.692Z,100.00
2023-01-28T18:20:00.514Z,100.00
2023-01-28T18:22:05.596Z,100.00
2023-01-28T18:24:10.257Z,100.00
2023-01-28T18:26:13.892Z,100.00
2023-01-28T18:28:17.535Z,100.00
2023-01-28T18:30:21.279Z,100.00
2023-01-28T18:32:24.865Z,100.00
2023-01-28T18:34:31.725Z,100.00
2023-01-28T18:36:35.597Z,100.00
2023-01-28T18:38:40.809Z,100.00
2023-01-28T18:40:46.092Z,100.00
2023-01-28T18:42:51.354Z,100.00
2023-01-28T18:44:55.034Z,100.00
2023-01-28T18:47:00.233Z,100.00
2023-01-28T18:49:03.727Z,100.00
2023-01-28T18:51:17.505Z,100.00
2023-01-28T18:53:32.768Z,100.00
2023-01-28T18:55:37.690Z,100.00
2023-01-28T18:57:41.557Z,100.00
2023-01-28T18:59:45.673Z,100.00
2023-01-28T19:01:50.172Z,100.00
2023-01-28T19:03:55.243Z,100.00
2023-01-28T19:06:04.795Z,100.00
2023-01-28T19:08:10.090Z,100.00
2023-01-28T19:10:13.395Z,100.00
2023-01-28T19:12:20.383Z,100.00
2023-01-28T19:14:25.220Z,100.00
2023-01-28T19:16:29.146Z,100.00
2023-01-28T19:18:34.694Z,100.00
2023-01-28T19:20:40.015Z,100.00
2023-01-28T19:22:44.018Z,100.00
2023-01-28T19:24:48.382Z,100.00
2023-01-28T19:26:52.279Z,100.00
2023-01-28T19:28:57.692Z,100.00
2023-01-28T19:31:01.584Z,100.00
2023-01-28T19:33:06.701Z,100.00
2023-01-28T19:35:10.161Z,100.00
2023-01-28T19:37:14.297Z,100.00
2023-01-28T19:39:18.980Z,100.00
2023-01-28T19:41:22.886Z,100.00
2023-01-28T19:43:28.778Z,100.00
2023-01-28T19:45:33.972Z,100.00
2023-01-28T19:47:37.448Z,100.00
2023-01-28T19:49:40.992Z,100.00
2023-01-28T19:51:45.308Z,100.00
2023-01-28T19:53:52.103Z,100.00
2023-01-28T19:55:55.875Z,100.00
2023-01-28T19:57:59.665Z,100.00
2023-01-28T20:00:03.512Z,100.00
2023-01-28T20:02:10.651Z,100.00
2023-01-28T20:04:14.696Z,100.00
2023-01-28T20:06:19.940Z,100.00
2023-01-28T20:08:24.985Z,100.00
2023-01-28T20:10:28.527Z,100.00
2023-01-28T20:12:32.101Z,100.00
2023-01-28T20:14:35.674Z,100.00
2023-01-28T20:16:39.555Z,100.00
2023-01-28T20:18:44.920Z,100.00
2023-01-28T20:20:53.716Z,100.00
2023-01-28T20:22:57.379Z,100.00
2023-01-28T20:25:01.894Z,100.00
2023-01-28T20:27:06.811Z,100.00
2023-01-28T20:29:12.721Z,100.00
2023-01-28T20:31:16.799Z,100.00
2023-01-28T20:33:21.242Z,100.00
2023-01-28T20:35:26.868Z,100.00
2023-01-28T20:37:31.488Z,100.00
2023-01-28T20:39:35.085Z,100.00
2023-01-28T20:41:39.321Z,100.00
2023-01-28T20:43:45.174Z,100.00
2023-01-28T20:45:48.974Z,100.00
2023-01-28T20:47:52.577Z,100.00
2023-01-28T20:49:56.380Z,100.00
2023-01-28T20:52:01.452Z,100.00
2023-01-28T20:54:04.981Z,100.00
2023-01-28T20:56:09.397Z,100.00
2023-01-28T20:58:13.481Z,100.00
2023-01-28T21:00:18.132Z,100.00
2023-01-28T21:02:22.398Z,100.00
2023-01-28T21:04:26.127Z,100.00
2023-01-28T21:06:30.288Z,100.00
2023-01-28T21:08:35.514Z,100.00
2023-01-28T21:10:40.945Z,100.00
2023-01-28T21:12:44.834Z,100.00
2023-01-28T21:14:49.530Z,100.00
2023-01-28T21:16:53.712Z,100.00
2023-01-28T21:18:58.325Z,100.00
2023-01-28T21:21:04.823Z,100.00
2023-01-28T21:23:08.345Z,100.00
2023-01-28T21:25:13.494Z,100.00
2023-01-28T21:27:16.854Z,100.00
2023-01-28T21:29:20.760Z,100.00
2023-01-28T21:31:26.909Z,100.00
2023-01-28T21:33:30.529Z,100.00
2023-01-28T21:35:38.090Z,100.00
2023-01-28T21:37:44.425Z,100.00
2023-01-28T21:39:51.636Z,100.00
2023-01-28T21:41:56.742Z,100.00
2023-01-28T21:44:00.726Z,100.00
2023-01-28T21:46:05.340Z,100.00
2023-01-28T21:48:10.564Z,100.00
2023-01-28T21:50:15.518Z,100.00
2023-01-28T21:52:20.948Z,100.00
2023-01-28T21:54:25.131Z,100.00
2023-01-28T21:56:28.970Z,100.00
2023-01-28T21:58:53.952Z,100.00
2023-01-28T22:00:57.513Z,100.00
2023-01-28T22:03:01.283Z,100.00
2023-01-28T22:05:05.933Z,100.00
2023-01-28T22:07:11.460Z,100.00
2023-01-28T22:09:15.636Z,100.00
2023-01-28T22:11:19.619Z,100.00
2023-01-28T22:13:23.289Z,100.00
2023-01-28T22:15:29.589Z,100.00
2023-01-28T22:17:33.710Z,100.00
2023-01-28T22:19:37.568Z,100.00
2023-01-28T22:21:44.072Z,100.00
2023-01-28T22:23:48.074Z,100.00
2023-01-28T22:25:54.178Z,100.00
2023-01-28T22:27:57.743Z,100.00
2023-01-28T22:30:01.747Z,100.00
2023-01-28T22:32:07.118Z,100.00
2023-01-28T22:34:11.621Z,100.00
2023-01-28T22:36:17.420Z,100.00
2023-01-28T22:38:21.881Z,100.00
2023-01-28T22:40:26.035Z,100.00
2023-01-28T22:42:29.813Z,100.00
2023-01-28T22:44:33.687Z,100.00
2023-01-28T22:46:38.104Z,100.00
2023-01-28T22:48:43.375Z,100.00
2023-01-28T22:50:46.802Z,100.00
2023-01-28T22:52:51.283Z,100.00
2023-01-28T22:54:54.983Z,100.00
2023-01-28T22:56:58.700Z,100.00
2023-01-28T22:59:05.285Z,100.00
2023-01-28T23:01:15.752Z,100.00
2023-01-28T23:03:19.766Z,100.00
2023-01-28T23:05:25.196Z,100.00
2023-01-28T23:07:29.291Z,100.00
2023-01-28T23:09:33.046Z,100.00
2023-01-28T23:11:37.391Z,100.00
2023-01-28T23:13:55.601Z,100.00
2023-01-28T23:16:17.007Z,100.00
2023-01-28T23:18:40.736Z,100.00
2023-01-28T23:21:18.284Z,100.00
2023-01-28T23:23:39.479Z,100.00
2023-01-28T23:25:43.296Z,100.00
2023-01-28T23:27:47.476Z,100.00
2023-01-28T23:29:51.432Z,100.00
2023-01-28T23:32:01.190Z,100.00
2023-01-28T23:34:05.056Z,100.00
2023-01-28T23:36:10.690Z,100.00
2023-01-28T23:38:14.290Z,100.00
2023-01-28T23:40:19.032Z,100.00
2023-01-28T23:42:23.912Z,100.00
2023-01-28T23:44:29.337Z,100.00
2023-01-28T23:46:39.396Z,100.00
2023-01-28T23:48:44.057Z,100.00
2023-01-28T23:50:47.902Z,100.00
2023-01-28T23:52:52.942Z,100.00
2023-01-28T23:54:56.454Z,100.00
2023-01-28T23:57:00.461Z,100.00
2023-01-28T23:59:04.424Z,100.00
